createdAt,value
2018-07-20T00:00:36.824Z,0.00
2018-07-20T00:01:36.764Z,0.00
2018-07-20T00:02:36.764Z,0.00
2018-07-20T00:03:36.768Z,0.00
2018-07-20T00:04:36.760Z,0.00
2018-07-20T00:05:36.762Z,0.00
2018-07-20T00:06:36.757Z,0.00
2018-07-20T00:07:36.757Z,0.00
2018-07-20T00:08:36.753Z,0.00
2018-07-20T00:09:36.750Z,0.00
2018-07-20T00:10:36.752Z,0.00
2018-07-20T00:11:36.749Z,0.00
2018-07-20T00:12:36.747Z,0.00
2018-07-20T00:13:36.745Z,0.00
2018-07-20T00:14:36.744Z,0.00
2018-07-20T00:15:36.743Z,0.00
2018-07-20T00:16:36.769Z,0.00
2018-07-20T00:17:36.740Z,0.00
2018-07-20T00:18:36.739Z,0.00
2018-07-20T00:19:36.736Z,0.00
2018-07-20T00:20:36.734Z,0.00
2018-07-20T00:21:36.737Z,0.00
2018-07-20T00:22:36.734Z,0.00
2018-07-20T00:23:36.736Z,0.00
2018-07-20T00:24:36.727Z,0.00
2018-07-20T00:25:36.728Z,0.00
2018-07-20T00:26:36.726Z,0.00
2018-07-20T00:27:36.724Z,0.00
2018-07-20T00:28:36.724Z,0.00
2018-07-20T00:29:36.722Z,0.00
2018-07-20T00:30:36.722Z,0.00
2018-07-20T00:31:36.720Z,0.00
2018-07-20T00:32:36.715Z,0.00
2018-07-20T00:33:36.715Z,0.00
2018-07-20T00:34:36.720Z,0.00
2018-07-20T00:35:36.713Z,0.00
2018-07-20T00:36:36.715Z,0.00
2018-07-20T00:37:36.713Z,0.00
2018-07-20T00:38:36.711Z,0.00
2018-07-20T00:39:36.706Z,0.00
2018-07-20T00:40:36.710Z,0.00
2018-07-20T00:41:36.703Z,0.00
2018-07-20T00:42:36.700Z,0.00
2018-07-20T00:43:36.700Z,0.00
2018-07-20T00:44:36.697Z,0.00
2018-07-20T00:45:36.699Z,0.00
2018-07-20T00:46:36.695Z,0.00
2018-07-20T00:47:36.695Z,0.00
2018-07-20T00:48:36.688Z,0.00
2018-07-20T00:49:36.688Z,0.00
2018-07-20T00:50:36.687Z,0.00
2018-07-20T00:51:36.681Z,0.00
2018-07-20T00:52:36.685Z,0.00
2018-07-20T00:53:36.685Z,0.00
2018-07-20T00:54:36.680Z,0.00
2018-07-20T00:55:36.682Z,0.00
2018-07-20T00:56:36.681Z,0.00
2018-07-20T00:57:36.675Z,0.00
2018-07-20T00:58:36.674Z,0.00
2018-07-20T00:59:36.672Z,0.00
2018-07-20T01:00:36.671Z,0.00
2018-07-20T01:01:36.731Z,0.00
2018-07-20T01:02:36.725Z,0.00
2018-07-20T01:03:36.664Z,0.00
2018-07-20T01:04:36.663Z,0.00
2018-07-20T01:05:36.669Z,0.00
2018-07-20T01:06:36.660Z,0.00
2018-07-20T01:07:36.674Z,0.00
2018-07-20T01:08:36.655Z,0.00
2018-07-20T01:09:36.653Z,0.00
2018-07-20T01:10:36.651Z,0.00
2018-07-20T01:11:36.655Z,0.00
2018-07-20T01:12:36.650Z,0.00
2018-07-20T01:13:36.647Z,0.00
2018-07-20T01:14:36.644Z,0.00
2018-07-20T01:15:36.643Z,0.00
2018-07-20T01:16:36.651Z,0.00
2018-07-20T01:17:36.641Z,0.00
2018-07-20T01:18:36.645Z,0.00
2018-07-20T01:19:36.634Z,0.00
2018-07-20T01:20:36.634Z,0.00
2018-07-20T01:21:36.632Z,0.00
2018-07-20T01:22:36.630Z,0.00
2018-07-20T01:23:36.631Z,0.00
2018-07-20T01:24:36.627Z,0.00
2018-07-20T01:25:36.626Z,0.00
2018-07-20T01:26:36.626Z,0.00
2018-07-20T01:27:36.622Z,0.00
2018-07-20T01:28:36.616Z,0.00
2018-07-20T01:29:36.617Z,0.00
2018-07-20T01:30:36.611Z,0.00
2018-07-20T02:04:59.447Z,0.00
2018-07-20T02:05:59.425Z,0.00
2018-07-20T02:07:52.353Z,0.00
2018-07-20T02:08:52.328Z,0.00
2018-07-20T02:10:45.234Z,0.00
2018-07-20T02:11:45.209Z,0.00
2018-07-20T02:13:38.135Z,0.00
2018-07-20T02:14:38.126Z,0.00
2018-07-20T02:16:31.069Z,0.00
2018-07-20T02:17:31.051Z,0.00
2018-07-20T02:19:23.953Z,0.00
2018-07-20T02:20:23.936Z,0.00
2018-07-20T02:22:16.899Z,0.00
2018-07-20T02:23:16.870Z,0.00
2018-07-20T02:25:09.841Z,0.00
2018-07-20T02:26:09.819Z,0.00
2018-07-20T02:28:02.756Z,0.00
2018-07-20T02:29:02.737Z,0.00
2018-07-20T02:30:55.654Z,0.00
2018-07-20T02:31:55.643Z,0.00
2018-07-20T02:33:48.577Z,0.00
2018-07-20T02:34:48.568Z,0.00
2018-07-20T02:36:41.519Z,0.00
2018-07-20T02:37:41.499Z,0.00
2018-07-20T02:39:34.452Z,0.00
2018-07-20T02:40:34.443Z,0.00
2018-07-20T02:42:27.418Z,0.00
2018-07-20T02:43:27.397Z,0.00
2018-07-20T02:45:20.361Z,0.00
2018-07-20T02:46:20.359Z,0.00
2018-07-20T02:48:13.254Z,0.00
2018-07-20T02:49:13.235Z,0.00
2018-07-20T02:51:06.195Z,0.00
2018-07-20T02:52:06.162Z,0.00
2018-07-20T02:53:59.120Z,0.00
2018-07-20T02:54:59.108Z,0.00
2018-07-20T02:56:52.129Z,0.00
2018-07-20T02:57:52.112Z,0.00
2018-07-20T02:59:45.065Z,0.00
2018-07-20T03:00:45.053Z,0.00
2018-07-20T03:02:37.971Z,0.00
2018-07-20T03:03:37.942Z,0.00
2018-07-20T03:05:30.835Z,0.00
2018-07-20T03:06:30.828Z,0.00
2018-07-20T03:08:23.765Z,0.00
2018-07-20T03:09:23.746Z,0.00
2018-07-20T03:11:16.694Z,0.00
2018-07-20T03:12:16.669Z,0.00
2018-07-20T03:14:09.643Z,0.00
2018-07-20T03:15:09.622Z,0.00
2018-07-20T03:17:02.599Z,0.00
2018-07-20T03:18:02.573Z,0.00
2018-07-20T03:19:55.534Z,0.00
2018-07-20T03:20:55.536Z,0.00
2018-07-20T03:22:48.552Z,0.00
2018-07-20T03:23:48.528Z,0.00
2018-07-20T03:25:41.518Z,0.00
2018-07-20T03:26:41.502Z,0.00
2018-07-20T03:28:34.474Z,0.00
2018-07-20T03:29:34.452Z,0.00
2018-07-20T03:31:27.455Z,5.63
2018-07-20T03:32:27.443Z,5.63
2018-07-20T03:34:20.369Z,5.63
2018-07-20T03:35:20.350Z,5.63
2018-07-20T03:37:13.265Z,11.25
2018-07-20T03:38:13.245Z,11.25
2018-07-20T03:40:06.190Z,11.25
2018-07-20T03:41:06.192Z,11.25
2018-07-20T03:42:59.161Z,16.88
2018-07-20T03:43:59.135Z,16.88
2018-07-20T03:45:52.123Z,22.50
2018-07-20T03:46:52.112Z,22.50
2018-07-20T03:48:45.162Z,28.13
2018-07-20T03:49:45.141Z,28.13
2018-07-20T03:51:38.116Z,33.75
2018-07-20T03:52:38.103Z,39.38
2018-07-20T03:54:31.070Z,45.00
2018-07-20T03:55:31.050Z,50.63
2018-07-20T03:57:23.987Z,56.25
2018-07-20T03:58:23.974Z,61.88
2018-07-20T04:00:16.916Z,61.88
2018-07-20T04:01:16.907Z,67.50
2018-07-20T04:03:09.862Z,78.75
2018-07-20T04:04:09.844Z,84.38
2018-07-20T04:06:02.763Z,90.00
2018-07-20T04:07:02.741Z,95.63
2018-07-20T04:08:55.740Z,112.50
2018-07-20T04:09:55.717Z,118.13
2018-07-20T04:11:48.662Z,123.75
2018-07-20T04:12:48.650Z,129.38
2018-07-20T04:14:41.630Z,140.63
2018-07-20T04:15:41.609Z,146.25
2018-07-20T04:17:34.531Z,157.50
2018-07-20T04:18:34.509Z,163.13
2018-07-20T04:20:27.485Z,174.38
2018-07-20T04:21:27.474Z,174.38
2018-07-20T04:23:20.409Z,185.63
2018-07-20T04:24:20.382Z,191.25
2018-07-20T04:26:13.276Z,196.88
2018-07-20T04:27:13.256Z,202.50
2018-07-20T04:29:06.171Z,208.13
2018-07-20T04:30:06.157Z,208.13
2018-07-20T04:31:59.185Z,208.13
2018-07-20T04:32:59.171Z,208.13
2018-07-20T04:34:52.148Z,196.88
2018-07-20T04:35:52.072Z,213.75
2018-07-20T04:37:45.000Z,236.25
2018-07-20T04:38:44.970Z,241.88
2018-07-20T04:40:37.906Z,253.13
2018-07-20T04:41:37.888Z,264.38
2018-07-20T04:43:30.845Z,286.88
2018-07-20T04:44:30.826Z,292.50
2018-07-20T04:46:23.725Z,326.25
2018-07-20T04:47:23.716Z,348.75
2018-07-20T04:49:16.695Z,388.13
2018-07-20T04:50:16.677Z,410.63
2018-07-20T04:52:09.600Z,444.38
2018-07-20T04:53:09.584Z,450.00
2018-07-20T04:55:02.601Z,455.63
2018-07-20T04:56:02.583Z,455.63
2018-07-20T04:57:55.508Z,455.63
2018-07-20T04:58:55.554Z,455.63
2018-07-20T05:00:48.428Z,450.00
2018-07-20T05:01:48.416Z,444.38
2018-07-20T05:03:41.384Z,433.13
2018-07-20T05:04:41.367Z,421.88
2018-07-20T05:06:34.304Z,410.63
2018-07-20T05:07:34.296Z,410.63
2018-07-20T05:09:27.260Z,410.63
2018-07-20T05:10:27.241Z,416.25
2018-07-20T05:12:20.151Z,421.88
2018-07-20T05:13:20.143Z,427.50
2018-07-20T05:15:13.113Z,427.50
2018-07-20T05:16:13.101Z,433.13
2018-07-20T05:18:06.113Z,410.63
2018-07-20T05:19:06.090Z,427.50
2018-07-20T05:20:59.116Z,455.63
2018-07-20T05:21:59.094Z,461.25
2018-07-20T05:22:59.097Z,466.88
2018-07-20T05:23:59.098Z,472.50
2018-07-20T05:24:59.109Z,472.50
2018-07-20T05:25:59.096Z,461.25
2018-07-20T05:26:59.098Z,466.88
2018-07-20T05:27:59.094Z,466.88
2018-07-20T05:28:59.095Z,427.50
2018-07-20T05:29:59.096Z,416.25
2018-07-20T05:30:59.199Z,444.38
2018-07-20T05:31:59.101Z,472.50
2018-07-20T05:32:59.100Z,506.25
2018-07-20T05:33:59.102Z,506.25
2018-07-20T05:34:59.338Z,478.13
2018-07-20T05:35:59.102Z,506.25
2018-07-20T05:36:59.107Z,506.25
2018-07-20T05:37:59.108Z,500.63
2018-07-20T05:38:59.105Z,438.75
2018-07-20T05:39:59.108Z,433.13
2018-07-20T05:40:59.108Z,438.75
2018-07-20T05:41:59.108Z,523.13
2018-07-20T05:42:59.110Z,511.88
2018-07-20T05:43:59.140Z,500.63
2018-07-20T05:44:59.115Z,500.63
2018-07-20T05:45:59.113Z,489.38
2018-07-20T05:46:59.117Z,472.50
2018-07-20T05:47:59.124Z,478.13
2018-07-20T05:48:59.124Z,472.50
2018-07-20T05:49:59.119Z,450.00
2018-07-20T05:50:59.146Z,433.13
2018-07-20T05:51:59.125Z,371.25
2018-07-20T05:52:59.119Z,416.25
2018-07-20T05:53:59.123Z,450.00
2018-07-20T05:54:59.124Z,393.75
2018-07-20T05:55:59.125Z,466.88
2018-07-20T05:56:59.127Z,517.50
2018-07-20T05:57:59.131Z,427.50
2018-07-20T05:58:59.127Z,500.63
2018-07-20T05:59:59.129Z,506.25
2018-07-20T06:00:59.129Z,579.38
2018-07-20T06:01:59.132Z,579.38
2018-07-20T06:02:59.136Z,579.38
2018-07-20T06:03:59.141Z,585.00
2018-07-20T06:04:59.137Z,590.63
2018-07-20T06:05:59.136Z,596.25
2018-07-20T06:06:59.138Z,601.88
2018-07-20T06:07:59.138Z,607.50
2018-07-20T06:08:59.140Z,613.13
2018-07-20T06:09:59.151Z,618.75
2018-07-20T06:10:59.144Z,624.38
2018-07-20T06:11:59.141Z,624.38
2018-07-20T06:12:59.147Z,624.38
2018-07-20T06:13:59.151Z,630.00
2018-07-20T06:14:59.154Z,630.00
2018-07-20T06:15:59.151Z,635.63
2018-07-20T06:16:59.156Z,635.63
2018-07-20T06:17:59.159Z,641.25
2018-07-20T06:18:59.196Z,646.88
2018-07-20T06:19:59.160Z,652.50
2018-07-20T06:20:59.167Z,652.50
2018-07-20T06:21:59.163Z,658.13
2018-07-20T06:22:59.196Z,663.75
2018-07-20T06:23:59.197Z,669.38
2018-07-20T06:24:59.170Z,675.00
2018-07-20T06:25:59.181Z,680.63
2018-07-20T06:26:59.176Z,686.25
2018-07-20T06:27:59.179Z,691.88
2018-07-20T06:28:59.181Z,703.13
2018-07-20T06:29:59.189Z,697.50
2018-07-20T06:30:59.190Z,703.13
2018-07-20T06:31:59.191Z,703.13
2018-07-20T06:32:59.194Z,708.75
2018-07-20T06:33:59.196Z,708.75
2018-07-20T06:34:59.200Z,714.38
2018-07-20T06:35:59.201Z,714.38
2018-07-20T06:36:59.204Z,725.63
2018-07-20T06:37:59.208Z,725.63
2018-07-20T06:38:59.217Z,736.88
2018-07-20T06:39:59.214Z,736.88
2018-07-20T06:40:59.222Z,736.88
2018-07-20T06:41:59.211Z,742.50
2018-07-20T06:42:59.227Z,742.50
2018-07-20T06:43:59.222Z,748.13
2018-07-20T06:44:59.232Z,748.13
2018-07-20T06:45:59.237Z,748.13
2018-07-20T06:46:59.241Z,753.75
2018-07-20T06:47:59.254Z,753.75
2018-07-20T06:48:59.246Z,753.75
2018-07-20T06:49:59.251Z,759.38
2018-07-20T06:50:59.262Z,759.38
2018-07-20T06:51:59.255Z,765.00
2018-07-20T06:52:59.259Z,765.00
2018-07-20T06:53:59.264Z,770.63
2018-07-20T06:54:59.268Z,770.63
2018-07-20T06:55:59.278Z,776.25
2018-07-20T06:56:59.273Z,776.25
2018-07-20T06:57:59.277Z,776.25
2018-07-20T06:58:59.284Z,781.88
2018-07-20T06:59:59.288Z,781.88
2018-07-20T07:00:59.291Z,787.50
2018-07-20T07:01:59.297Z,793.13
2018-07-20T07:02:59.301Z,798.75
2018-07-20T07:03:59.310Z,810.00
2018-07-20T07:04:59.310Z,804.38
2018-07-20T07:05:59.316Z,810.00
2018-07-20T07:06:59.314Z,821.25
2018-07-20T07:07:59.325Z,821.25
2018-07-20T07:08:59.331Z,832.50
2018-07-20T07:09:59.329Z,849.38
2018-07-20T07:10:59.337Z,883.13
2018-07-20T07:11:59.338Z,911.25
2018-07-20T07:12:59.352Z,967.50
2018-07-20T07:13:59.350Z,1771.88
2018-07-20T07:14:59.434Z,2452.50
2018-07-20T07:15:59.361Z,2525.63
2018-07-20T07:16:59.364Z,2407.50
2018-07-20T07:17:59.370Z,2401.88
2018-07-20T07:18:59.379Z,2480.63
2018-07-20T07:19:59.384Z,2581.88
2018-07-20T07:20:59.392Z,2598.75
2018-07-20T07:21:59.402Z,2604.38
2018-07-20T07:22:59.411Z,2626.88
2018-07-20T07:23:59.418Z,2514.38
2018-07-20T07:24:59.430Z,2649.38
2018-07-20T07:25:59.523Z,2683.13
2018-07-20T07:26:59.448Z,2503.13
2018-07-20T07:27:59.455Z,2576.25
2018-07-20T07:28:59.471Z,2677.50
2018-07-20T07:29:59.478Z,2745.00
2018-07-20T07:30:59.495Z,2851.88
2018-07-20T07:31:59.499Z,2896.88
2018-07-20T07:32:59.516Z,2975.63
2018-07-20T07:33:59.525Z,2857.50
2018-07-20T07:34:59.543Z,2812.50
2018-07-20T07:35:59.556Z,2745.00
2018-07-20T07:36:59.566Z,2711.25
2018-07-20T07:37:59.580Z,2941.88
2018-07-20T07:38:59.593Z,3009.38
2018-07-20T07:39:59.608Z,3015.00
2018-07-20T07:40:59.619Z,2812.50
2018-07-20T07:41:59.637Z,2508.75
2018-07-20T07:42:59.650Z,2649.38
2018-07-20T07:43:59.665Z,3088.13
2018-07-20T07:44:59.680Z,3088.13
2018-07-20T07:45:59.691Z,3031.88
2018-07-20T07:46:59.708Z,3031.88
2018-07-20T07:47:59.721Z,3155.63
2018-07-20T07:48:59.741Z,3020.63
2018-07-20T07:49:59.755Z,2891.25
2018-07-20T07:50:59.774Z,3043.13
2018-07-20T07:51:59.786Z,3268.13
2018-07-20T07:52:59.799Z,3200.63
2018-07-20T07:53:59.814Z,3166.88
2018-07-20T07:54:59.831Z,3166.88
2018-07-20T07:55:59.848Z,3245.63
2018-07-20T07:56:59.863Z,3256.88
2018-07-20T07:57:59.877Z,3015.00
2018-07-20T07:58:59.893Z,3127.50
2018-07-20T07:59:59.909Z,3285.00
2018-07-20T08:00:59.928Z,3335.63
2018-07-20T08:01:59.942Z,3268.13
2018-07-20T08:02:59.954Z,3172.50
2018-07-20T08:03:59.982Z,3093.75
2018-07-20T08:04:59.990Z,3065.63
2018-07-20T08:06:00.019Z,3206.25
2018-07-20T08:07:00.027Z,3571.88
2018-07-20T08:08:00.041Z,3622.50
2018-07-20T08:09:00.056Z,3436.88
2018-07-20T08:10:00.261Z,3318.75
2018-07-20T08:11:00.089Z,3200.63
2018-07-20T08:12:00.109Z,3358.13
2018-07-20T08:13:00.122Z,3498.75
2018-07-20T08:14:00.142Z,3442.50
2018-07-20T08:15:00.159Z,3549.38
2018-07-20T08:16:00.173Z,3960.00
2018-07-20T08:17:00.194Z,3937.50
2018-07-20T08:18:00.209Z,3583.13
2018-07-20T08:19:00.228Z,2902.50
2018-07-20T08:20:00.244Z,2801.25
2018-07-20T08:21:00.266Z,2345.63
2018-07-20T08:22:00.277Z,2891.25
2018-07-20T08:23:00.353Z,3459.38
2018-07-20T08:24:00.317Z,3881.25
2018-07-20T08:25:00.331Z,3853.13
2018-07-20T08:26:00.349Z,4005.00
2018-07-20T08:27:00.364Z,4241.25
2018-07-20T08:28:00.382Z,4342.50
2018-07-20T08:29:00.399Z,4128.75
2018-07-20T08:30:00.448Z,3948.75
2018-07-20T08:31:00.439Z,3667.50
2018-07-20T08:32:00.456Z,3071.25
2018-07-20T08:33:00.476Z,2160.00
2018-07-20T08:34:00.494Z,2109.38
2018-07-20T08:35:00.510Z,1800.00
2018-07-20T08:36:00.527Z,2643.75
2018-07-20T08:37:00.543Z,2435.63
2018-07-20T08:38:00.596Z,1996.88
2018-07-20T08:39:00.585Z,2019.38
2018-07-20T08:40:00.603Z,2401.88
2018-07-20T08:41:00.607Z,2396.25
2018-07-20T08:42:00.635Z,2700.00
2018-07-20T08:43:00.646Z,2351.25
2018-07-20T08:44:00.665Z,2334.38
2018-07-20T08:45:00.679Z,2604.38
2018-07-20T08:46:00.694Z,3026.25
2018-07-20T08:47:00.708Z,3009.38
2018-07-20T08:48:00.722Z,3611.25
2018-07-20T08:49:00.741Z,2874.38
2018-07-20T08:50:00.753Z,3279.38
2018-07-20T08:51:00.773Z,2655.00
2018-07-20T08:52:00.786Z,2216.25
2018-07-20T08:53:00.800Z,2266.88
2018-07-20T08:54:00.821Z,2137.50
2018-07-20T08:55:00.832Z,1996.88
2018-07-20T08:56:00.851Z,1861.88
2018-07-20T08:57:00.862Z,1743.75
2018-07-20T08:58:00.872Z,1687.50
2018-07-20T08:59:00.911Z,1732.50
2018-07-20T09:00:00.968Z,1726.88
2018-07-20T09:01:00.918Z,2283.75
2018-07-20T09:02:00.932Z,1670.63
2018-07-20T09:03:00.948Z,1828.13
2018-07-20T09:04:00.960Z,1721.25
2018-07-20T09:05:00.972Z,4275.00
2018-07-20T09:06:00.987Z,1861.88
2018-07-20T09:07:01.000Z,2058.75
2018-07-20T09:08:01.014Z,4005.00
2018-07-20T09:09:01.027Z,4623.75
2018-07-20T09:10:01.040Z,3847.50
2018-07-20T09:11:01.058Z,3948.75
2018-07-20T09:12:22.087Z,4156.88
2018-07-20T09:13:01.079Z,4201.88
2018-07-20T09:14:01.108Z,4252.50
2018-07-20T09:15:01.106Z,4696.88
2018-07-20T09:16:01.126Z,4263.75
2018-07-20T09:17:01.138Z,4196.25
2018-07-20T09:18:01.159Z,2649.38
2018-07-20T09:19:01.174Z,4404.38
2018-07-20T09:20:01.187Z,4365.00
2018-07-20T09:21:01.229Z,3172.50
2018-07-20T09:22:01.220Z,4421.25
2018-07-20T09:23:01.243Z,4590.00
2018-07-20T09:24:01.267Z,4646.25
2018-07-20T09:25:01.274Z,4286.25
2018-07-20T09:26:01.291Z,2463.75
2018-07-20T09:27:01.311Z,1659.38
2018-07-20T09:28:01.328Z,1580.63
2018-07-20T09:29:01.347Z,1676.25
2018-07-20T09:30:01.364Z,2131.88
2018-07-20T09:31:01.385Z,2790.00
2018-07-20T09:32:01.395Z,2025.00
2018-07-20T09:33:01.406Z,2171.25
2018-07-20T09:34:01.486Z,2390.63
2018-07-20T09:35:01.448Z,3667.50
2018-07-20T09:36:01.465Z,3588.75
2018-07-20T09:37:01.480Z,4927.50
2018-07-20T09:38:01.493Z,4910.63
2018-07-20T09:39:01.511Z,4921.88
2018-07-20T09:40:01.530Z,3577.50
2018-07-20T09:41:01.546Z,2525.63
2018-07-20T09:42:01.563Z,2430.00
2018-07-20T09:43:01.580Z,2160.00
2018-07-20T09:44:01.593Z,1974.38
2018-07-20T09:45:01.615Z,1822.50
2018-07-20T09:46:01.633Z,1653.75
2018-07-20T09:47:01.646Z,1642.50
2018-07-20T09:48:01.656Z,1951.88
2018-07-20T09:49:01.733Z,1530.00
2018-07-20T09:50:01.690Z,1625.63
2018-07-20T09:51:01.709Z,1642.50
2018-07-20T09:52:01.727Z,1569.38
2018-07-20T09:53:01.732Z,1783.13
2018-07-20T09:54:01.745Z,1687.50
2018-07-20T09:55:01.759Z,1721.25
2018-07-20T09:56:01.777Z,1726.88
2018-07-20T09:57:01.786Z,1755.00
2018-07-20T09:58:01.805Z,1957.50
2018-07-20T09:59:01.827Z,2103.75
2018-07-20T10:00:01.824Z,2334.38
2018-07-20T10:01:01.843Z,5613.75
2018-07-20T10:02:01.859Z,5034.38
2018-07-20T10:03:01.861Z,5625.00
2018-07-20T10:04:01.875Z,5276.25
2018-07-20T10:05:01.939Z,5310.00
2018-07-20T10:06:01.905Z,4950.00
2018-07-20T10:07:01.917Z,4083.75
2018-07-20T10:08:01.932Z,3414.38
2018-07-20T10:09:01.948Z,4314.38
2018-07-20T10:10:01.964Z,4961.25
2018-07-20T10:11:01.982Z,4612.50
2018-07-20T10:12:02.000Z,4550.63
2018-07-20T10:13:02.015Z,4168.13
2018-07-20T10:14:02.029Z,4044.38
2018-07-20T10:15:02.048Z,4190.63
2018-07-20T10:16:02.985Z,4353.75
2018-07-20T10:17:02.091Z,4331.25
2018-07-20T10:18:02.098Z,4359.38
2018-07-20T10:19:02.121Z,4398.75
2018-07-20T10:20:02.133Z,4809.38
2018-07-20T10:21:02.150Z,4899.38
2018-07-20T10:22:02.173Z,4803.75
2018-07-20T10:23:02.206Z,4702.50
2018-07-20T10:24:02.212Z,4635.00
2018-07-20T10:25:02.231Z,4640.63
2018-07-20T10:26:02.254Z,4691.25
2018-07-20T10:27:02.280Z,4663.13
2018-07-20T10:28:02.293Z,4556.25
2018-07-20T10:29:02.307Z,4331.25
2018-07-20T10:30:02.325Z,4258.13
2018-07-20T10:31:02.349Z,4438.13
2018-07-20T10:32:02.368Z,4455.00
2018-07-20T10:33:02.391Z,4651.88
2018-07-20T10:34:02.405Z,4713.75
2018-07-20T10:35:02.437Z,4696.88
2018-07-20T10:36:02.443Z,4494.38
2018-07-20T10:37:02.467Z,4483.13
2018-07-20T10:38:02.484Z,4381.88
2018-07-20T10:39:02.505Z,4038.75
2018-07-20T10:40:02.528Z,4213.13
2018-07-20T10:41:02.550Z,4134.38
2018-07-20T10:42:02.565Z,4083.75
2018-07-20T10:43:02.608Z,4027.50
2018-07-20T10:44:02.602Z,4252.50
2018-07-20T10:45:02.655Z,4207.50
2018-07-20T10:46:02.645Z,4151.25
2018-07-20T10:47:02.697Z,4505.63
2018-07-20T10:48:02.683Z,4505.63
2018-07-20T10:49:02.706Z,4528.13
2018-07-20T10:50:02.724Z,4651.88
2018-07-20T10:51:02.746Z,5028.75
2018-07-20T10:52:02.769Z,4843.13
2018-07-20T10:53:02.797Z,4753.13
2018-07-20T10:54:02.807Z,5085.00
2018-07-20T10:55:02.824Z,4815.00
2018-07-20T10:56:02.843Z,4516.88
2018-07-20T10:57:02.866Z,4848.75
2018-07-20T10:58:02.888Z,4826.25
2018-07-20T10:59:02.902Z,4815.00
2018-07-20T11:00:02.925Z,4629.38
2018-07-20T11:01:02.944Z,4488.75
2018-07-20T11:02:02.964Z,4320.00
2018-07-20T11:03:02.988Z,4500.00
2018-07-20T11:04:03.004Z,4325.63
2018-07-20T11:05:03.023Z,4072.50
2018-07-20T11:06:03.042Z,4173.75
2018-07-20T11:07:03.066Z,4213.13
2018-07-20T11:08:03.156Z,4111.88
2018-07-20T11:09:03.112Z,3999.38
2018-07-20T11:10:03.123Z,4291.88
2018-07-20T11:11:03.142Z,4432.50
2018-07-20T11:12:03.160Z,4336.88
2018-07-20T11:13:03.182Z,4078.13
2018-07-20T11:14:03.199Z,4168.13
2018-07-20T11:15:03.228Z,4342.50
2018-07-20T11:16:03.239Z,4331.25
2018-07-20T11:17:03.260Z,3943.13
2018-07-20T11:18:03.280Z,3780.00
2018-07-20T11:19:03.298Z,4207.50
2018-07-20T11:20:03.321Z,4516.88
2018-07-20T11:21:03.343Z,4196.25
2018-07-20T11:22:03.360Z,3948.75
2018-07-20T11:23:03.380Z,4297.50
2018-07-20T11:24:03.403Z,4601.25
2018-07-20T11:25:03.418Z,4685.63
2018-07-20T11:26:03.437Z,4303.13
2018-07-20T11:27:03.457Z,4179.38
2018-07-20T11:28:03.497Z,4460.63
2018-07-20T11:29:03.497Z,4595.63
2018-07-20T11:30:03.516Z,4426.88
2018-07-20T11:31:03.537Z,4320.00
2018-07-20T11:32:03.555Z,4269.38
2018-07-20T11:33:03.576Z,4275.00
2018-07-20T11:34:03.596Z,4336.88
2018-07-20T11:35:03.622Z,4860.00
2018-07-20T11:36:03.633Z,4792.50
2018-07-20T11:37:03.652Z,866.25
2018-07-20T11:38:03.676Z,1035.00
2018-07-20T11:39:03.691Z,1490.63
2018-07-20T11:40:03.711Z,2576.25
2018-07-20T11:41:03.726Z,4736.25
2018-07-20T11:42:03.751Z,4905.00
2018-07-20T11:43:03.765Z,5130.00
2018-07-20T11:44:03.781Z,4871.25
2018-07-20T11:45:03.799Z,4972.50
2018-07-20T11:46:03.818Z,5270.63
2018-07-20T11:47:03.835Z,5040.00
2018-07-20T11:48:03.853Z,5040.00
2018-07-20T11:49:03.872Z,5456.25
2018-07-20T11:50:03.893Z,5799.38
2018-07-20T11:51:03.909Z,6103.13
2018-07-20T11:52:03.923Z,5580.00
2018-07-20T11:53:03.945Z,5473.13
2018-07-20T11:54:03.961Z,5596.88
2018-07-20T11:55:04.001Z,5495.63
2018-07-20T11:56:04.073Z,5585.63
2018-07-20T11:57:04.015Z,5422.50
2018-07-20T11:58:04.032Z,5141.25
2018-07-20T11:59:04.062Z,5214.38
2018-07-20T12:00:04.072Z,4905.00
2018-07-20T12:01:04.091Z,4426.88
2018-07-20T12:02:04.116Z,4685.63
2018-07-20T12:03:04.130Z,4826.25
2018-07-20T12:04:04.147Z,1541.25
2018-07-20T12:05:04.166Z,4803.75
2018-07-20T12:06:04.183Z,4606.88
2018-07-20T12:07:04.209Z,5377.50
2018-07-20T12:08:04.236Z,5495.63
2018-07-20T12:09:04.243Z,5079.38
2018-07-20T12:10:04.280Z,5141.25
2018-07-20T12:11:04.278Z,4961.25
2018-07-20T12:12:04.298Z,4663.13
2018-07-20T12:13:04.317Z,4640.63
2018-07-20T12:14:04.340Z,4843.13
2018-07-20T12:15:04.357Z,4713.75
2018-07-20T12:16:04.374Z,4297.50
2018-07-20T12:17:04.397Z,4561.88
2018-07-20T12:18:04.413Z,4545.00
2018-07-20T12:19:04.430Z,4168.13
2018-07-20T12:20:04.452Z,3841.88
2018-07-20T12:21:04.477Z,4055.63
2018-07-20T12:22:04.496Z,4303.13
2018-07-20T12:23:04.502Z,4477.50
2018-07-20T12:24:04.529Z,4590.00
2018-07-20T12:25:04.557Z,4623.75
2018-07-20T12:26:04.557Z,4680.00
2018-07-20T12:27:04.585Z,4635.00
2018-07-20T12:28:04.611Z,4871.25
2018-07-20T12:29:04.630Z,4455.00
2018-07-20T12:30:04.649Z,3976.88
2018-07-20T12:31:04.666Z,4410.00
2018-07-20T12:32:04.689Z,4460.63
2018-07-20T12:33:04.707Z,3870.00
2018-07-20T12:34:04.768Z,3746.25
2018-07-20T12:35:04.746Z,3588.75
2018-07-20T12:36:04.768Z,3521.25
2018-07-20T12:37:04.784Z,3836.25
2018-07-20T12:38:04.804Z,4078.13
2018-07-20T12:39:04.823Z,4027.50
2018-07-20T12:40:04.846Z,4275.00
2018-07-20T12:41:04.862Z,3026.25
2018-07-20T12:42:04.893Z,1080.00
2018-07-20T12:43:04.896Z,855.00
2018-07-20T12:44:04.918Z,860.63
2018-07-20T12:45:04.931Z,894.38
2018-07-20T12:46:04.948Z,967.50
2018-07-20T12:47:04.964Z,1012.50
2018-07-20T12:48:04.977Z,1046.25
2018-07-20T12:49:04.994Z,1096.88
2018-07-20T12:50:05.027Z,1147.50
2018-07-20T12:51:05.022Z,1203.75
2018-07-20T12:52:05.040Z,1288.13
2018-07-20T12:53:05.049Z,1327.50
2018-07-20T12:54:05.063Z,1361.25
2018-07-20T12:55:05.081Z,1383.75
2018-07-20T12:56:05.089Z,1445.63
2018-07-20T12:57:05.101Z,1479.38
2018-07-20T12:58:05.152Z,1423.13
2018-07-20T12:59:05.153Z,1428.75
2018-07-20T13:00:05.136Z,1428.75
2018-07-20T13:01:05.149Z,1434.38
2018-07-20T13:02:05.168Z,1440.00
2018-07-20T13:03:05.176Z,1479.38
2018-07-20T13:04:05.183Z,1485.00
2018-07-20T13:05:05.193Z,1462.50
2018-07-20T13:06:05.208Z,1434.38
2018-07-20T13:07:05.217Z,1411.88
2018-07-20T13:08:05.230Z,1276.88
2018-07-20T13:09:05.241Z,1192.50
2018-07-20T13:10:05.253Z,1164.38
2018-07-20T13:11:05.258Z,1125.00
2018-07-20T13:12:05.405Z,1074.38
2018-07-20T13:13:05.338Z,1091.25
2018-07-20T13:14:05.407Z,1136.25
2018-07-20T13:15:05.306Z,1186.88
2018-07-20T13:16:05.309Z,1203.75
2018-07-20T13:17:05.327Z,1209.38
2018-07-20T13:18:05.406Z,1147.50
2018-07-20T13:19:05.344Z,1125.00
2018-07-20T13:20:05.362Z,1080.00
2018-07-20T13:21:05.363Z,1006.88
2018-07-20T13:22:05.374Z,1006.88
2018-07-20T13:23:05.387Z,1068.75
2018-07-20T13:24:05.391Z,1147.50
2018-07-20T13:25:05.401Z,1147.50
2018-07-20T13:26:05.414Z,1141.88
2018-07-20T13:27:05.423Z,1136.25
2018-07-20T13:28:05.434Z,1153.13
2018-07-20T13:29:05.446Z,1226.25
2018-07-20T13:30:05.454Z,1243.13
2018-07-20T13:31:05.461Z,1203.75
2018-07-20T13:32:05.472Z,1215.00
2018-07-20T13:33:05.481Z,1226.25
2018-07-20T13:34:05.487Z,1186.88
2018-07-20T13:35:05.501Z,1147.50
2018-07-20T13:36:05.516Z,1119.38
2018-07-20T13:37:05.519Z,1080.00
2018-07-20T13:38:05.522Z,1046.25
2018-07-20T13:39:05.540Z,995.63
2018-07-20T13:40:05.549Z,933.75
2018-07-20T13:41:05.553Z,860.63
2018-07-20T13:42:05.564Z,793.13
2018-07-20T13:43:05.575Z,736.88
2018-07-20T13:44:05.577Z,703.13
2018-07-20T13:45:05.582Z,720.00
2018-07-20T13:46:05.592Z,798.75
2018-07-20T13:47:05.597Z,849.38
2018-07-20T13:48:05.604Z,888.75
2018-07-20T13:49:06.438Z,905.63
2018-07-20T13:50:05.619Z,905.63
2018-07-20T13:51:05.628Z,911.25
2018-07-20T13:52:05.625Z,916.88
2018-07-20T13:53:05.688Z,905.63
2018-07-20T13:54:05.645Z,888.75
2018-07-20T13:55:05.659Z,843.75
2018-07-20T13:56:05.663Z,810.00
2018-07-20T13:57:05.670Z,793.13
2018-07-20T13:58:05.676Z,826.88
2018-07-20T13:59:05.681Z,883.13
2018-07-20T14:00:05.695Z,928.13
2018-07-20T14:01:05.685Z,956.25